Time;durP1;ratioP1;P1;durP2;ratioP2;P2;SDS_P1;SDS_P2;PMS_P1;PMS_P2;Temp;Humidity;BMP_temperature;BMP_pressure;BME280_temperature;BME280_humidity;BME280_pressure;Samples;Min_cycle;Max_cycle;Signal;HPM_P1;HPM_P2
2021/01/26 00:01:47;;;;;;;7.03;2.43;;;;;;;;;;5033427;28;20217;-69
2021/01/26 00:04:32;;;;;;;5.73;2.63;;;;;;;;;;5033426;28;20205;-69
2021/01/26 00:07:16;;;;;;;8.57;2.43;;;;;;;;;;5032986;28;20245;-69
2021/01/26 00:10:01;;;;;;;5.00;2.87;;;;;;;;;;5033255;28;20225;-69
2021/01/26 00:12:46;;;;;;;9.73;3.10;;;;;;;;;;5033254;28;20229;-69
2021/01/26 00:15:30;;;;;;;7.27;3.07;;;;;;;;;;5033630;28;20206;-69
2021/01/26 00:18:15;;;;;;;10.47;3.40;;;;;;;;;;5032972;28;20197;-69
2021/01/26 00:20:59;;;;;;;7.27;3.53;;;;;;;;;;5032989;28;20222;-69
2021/01/26 00:23:44;;;;;;;7.03;3.40;;;;;;;;;;5033058;28;20197;-70
2021/01/26 00:26:28;;;;;;;10.23;5.43;;;;;;;;;;5031569;28;20414;-69
2021/01/26 00:29:14;;;;;;;13.23;6.23;;;;;;;;;;5032914;28;20202;-69
2021/01/26 00:31:58;;;;;;;13.63;5.20;;;;;;;;;;5032754;28;20253;-69
2021/01/26 00:34:43;;;;;;;8.50;4.13;;;;;;;;;;5032550;28;20225;-69
2021/01/26 00:37:27;;;;;;;6.90;2.60;;;;;;;;;;5032392;28;20680;-69
2021/01/26 00:40:13;;;;;;;6.97;2.00;;;;;;;;;;5032234;28;20253;-69
2021/01/26 00:42:58;;;;;;;4.67;2.20;;;;;;;;;;5032633;28;20202;-69
2021/01/26 00:45:43;;;;;;;4.83;2.77;;;;;;;;;;5032426;28;20194;-69
2021/01/26 00:48:27;;;;;;;4.87;3.20;;;;;;;;;;5032464;28;20286;-69
2021/01/26 00:51:12;;;;;;;6.50;3.33;;;;;;;;;;5032495;28;20226;-69
2021/01/26 00:53:57;;;;;;;9.93;3.20;;;;;;;;;;5032551;28;20202;-69
2021/01/26 00:56:41;;;;;;;7.70;3.33;;;;;;;;;;5031913;28;20245;-69
2021/01/26 00:59:25;;;;;;;14.07;4.70;;;;;;;;;;5032074;28;20295;-69
2021/01/26 01:02:11;;;;;;;12.57;4.40;;;;;;;;;;5032552;28;20202;-69
2021/01/26 01:04:55;;;;;;;12.30;4.63;;;;;;;;;;5032463;28;20207;-69
2021/01/26 01:07:40;;;;;;;13.23;5.43;;;;;;;;;;5031807;28;20634;-69
2021/01/26 01:10:26;;;;;;;15.70;5.93;;;;;;;;;;5032068;28;20229;-69
2021/01/26 01:13:11;;;;;;;11.87;6.67;;;;;;;;;;5032187;28;20198;-69
2021/01/26 01:15:55;;;;;;;16.77;6.90;;;;;;;;;;5031656;28;20653;-69
2021/01/26 01:18:41;;;;;;;19.10;7.23;;;;;;;;;;5031792;28;20228;-69
2021/01/26 01:21:25;;;;;;;20.20;8.60;;;;;;;;;;5031830;28;20238;-69
2021/01/26 01:24:10;;;;;;;13.50;6.43;;;;;;;;;;5031402;28;20210;-69
2021/01/26 01:26:54;;;;;;;14.97;6.23;;;;;;;;;;5031116;28;20217;-69
2021/01/26 01:29:39;;;;;;;12.50;3.70;;;;;;;;;;5031863;28;20297;-69
2021/01/26 01:32:23;;;;;;;9.23;3.13;;;;;;;;;;5031403;28;20340;-69
2021/01/26 01:35:09;;;;;;;9.63;3.45;;;;;;;;;;5030544;28;20409;-69
2021/01/26 01:37:53;;;;;;;10.03;3.07;;;;;;;;;;5031228;28;20206;-69
2021/01/26 01:40:38;;;;;;;9.33;3.97;;;;;;;;;;5031240;28;20288;-69
2021/01/26 01:43:22;;;;;;;14.13;6.90;;;;;;;;;;5031599;28;20230;-69
2021/01/26 01:46:12;;;;;;;16.23;4.80;;;;;;;;;;5031095;28;20298;-69
2021/01/26 01:48:58;;;;;;;12.83;4.07;;;;;;;;;;5031339;28;20209;-69
2021/01/26 01:51:44;;;;;;;11.13;3.80;;;;;;;;;;5031471;28;20253;-69
2021/01/26 01:54:30;;;;;;;12.37;3.60;;;;;;;;;;5031579;28;20218;-69
2021/01/26 01:57:18;;;;;;;14.47;4.10;;;;;;;;;;5030909;28;20256;-69
2021/01/26 02:00:05;;;;;;;15.33;4.37;;;;;;;;;;5031104;28;20237;-69
2021/01/26 02:02:51;;;;;;;15.97;4.20;;;;;;;;;;5031364;28;20221;-69
2021/01/26 02:05:36;;;;;;;19.77;4.90;;;;;;;;;;5030791;28;20473;-69
2021/01/26 02:08:24;;;;;;;17.13;4.20;;;;;;;;;;5031258;28;20414;-69
2021/01/26 02:11:08;;;;;;;16.53;4.53;;;;;;;;;;5030895;28;20230;-69
2021/01/26 02:13:52;;;;;;;16.20;6.17;;;;;;;;;;5031126;28;20677;-69
2021/01/26 02:16:45;;;;;;;15.80;5.17;;;;;;;;;;5030388;28;20245;-69
2021/01/26 02:19:57;;;;;;;14.03;6.53;;;;;;;;;;5030364;28;20638;-69
2021/01/26 02:22:58;;;;;;;17.23;7.17;;;;;;;;;;5031025;28;20233;-69
2021/01/26 02:25:59;;;;;;;12.43;5.70;;;;;;;;;;5031022;28;20193;-69
2021/01/26 02:28:53;;;;;;;17.00;4.50;;;;;;;;;;5030980;28;20214;-69
2021/01/26 02:32:01;;;;;;;15.47;4.50;;;;;;;;;;5030832;28;20276;-69
2021/01/26 02:35:04;;;;;;;16.70;5.67;;;;;;;;;;5033475;28;20241;-69
2021/01/26 02:38:03;;;;;;;15.10;5.60;;;;;;;;;;5034616;28;20711;-69
2021/01/26 02:40:51;;;;;;;14.43;6.40;;;;;;;;;;5034934;28;20771;-69
2021/01/26 02:43:44;;;;;;;13.47;5.53;;;;;;;;;;5034847;28;20210;-69
2021/01/26 02:46:33;;;;;;;17.77;6.40;;;;;;;;;;5034398;28;20213;-69
2021/01/26 02:49:22;;;;;;;20.17;7.37;;;;;;;;;;5034596;28;20373;-69
2021/01/26 02:52:08;;;;;;;16.17;4.37;;;;;;;;;;5034856;28;20676;-69
2021/01/26 02:54:57;;;;;;;10.00;3.23;;;;;;;;;;5034816;28;20197;-69
2021/01/26 02:57:45;;;;;;;15.83;3.17;;;;;;;;;;5034154;28;20206;-69
2021/01/26 03:00:31;;;;;;;10.90;3.20;;;;;;;;;;5034538;28;20647;-69
2021/01/26 03:03:18;;;;;;;11.73;3.17;;;;;;;;;;5034514;28;20206;-69
2021/01/26 03:06:05;;;;;;;10.50;3.20;;;;;;;;;;5034486;28;20937;-69
2021/01/26 03:08:52;;;;;;;10.53;4.10;;;;;;;;;;5046884;22;20336;-71
2021/01/26 03:11:38;;;;;;;8.43;3.13;;;;;;;;;;5014977;28;20334;-73
2021/01/26 03:14:26;;;;;;;11.03;3.97;;;;;;;;;;5014351;28;20919;-73
2021/01/26 03:17:14;;;;;;;9.77;3.90;;;;;;;;;;5013779;28;20412;-73
2021/01/26 03:20:01;;;;;;;7.07;2.33;;;;;;;;;;5014162;28;20285;-73
2021/01/26 03:22:47;;;;;;;8.70;2.33;;;;;;;;;;5014450;28;20689;-73
2021/01/26 03:25:32;;;;;;;6.77;2.30;;;;;;;;;;5014487;28;20424;-73
2021/01/26 03:28:17;;;;;;;6.70;1.97;;;;;;;;;;5012878;28;20254;-73
2021/01/26 03:31:02;;;;;;;5.43;1.80;;;;;;;;;;4994573;28;20235;-73
2021/01/26 03:33:48;;;;;;;8.93;1.83;;;;;;;;;;4994609;28;20207;-73
2021/01/26 03:36:32;;;;;;;7.73;2.10;;;;;;;;;;4994225;28;20284;-73
2021/01/26 03:39:17;;;;;;;6.50;2.00;;;;;;;;;;4994416;28;20235;-73
2021/01/26 03:42:01;;;;;;;9.83;2.20;;;;;;;;;;4994704;28;20414;-73
2021/01/26 03:44:46;;;;;;;9.50;2.33;;;;;;;;;;4994649;28;20205;-73
2021/01/26 03:47:35;;;;;;;9.43;2.30;;;;;;;;;;4993728;28;20199;-73
2021/01/26 03:50:27;;;;;;;6.53;2.10;;;;;;;;;;4994345;28;20222;-73
2021/01/26 03:53:30;;;;;;;11.80;4.53;;;;;;;;;;4994373;28;20286;-73
2021/01/26 03:56:19;;;;;;;10.10;3.47;;;;;;;;;;4993842;28;20289;-72
2021/01/26 03:59:13;;;;;;;9.43;2.63;;;;;;;;;;5005685;28;20303;-73
2021/01/26 04:01:59;;;;;;;8.10;2.30;;;;;;;;;;5012637;28;20214;-72
2021/01/26 04:04:49;;;;;;;11.53;2.70;;;;;;;;;;5001546;28;20235;-73
2021/01/26 04:07:37;;;;;;;11.70;2.83;;;;;;;;;;5013165;28;20246;-73
2021/01/26 04:10:25;;;;;;;12.57;2.97;;;;;;;;;;4998137;28;20251;-74
2021/01/26 04:13:11;;;;;;;13.87;3.60;;;;;;;;;;5000818;28;20202;-73
2021/01/26 04:15:58;;;;;;;10.47;3.57;;;;;;;;;;4998797;28;20246;-73
2021/01/26 04:18:43;;;;;;;8.60;2.43;;;;;;;;;;5009241;28;20709;-73
2021/01/26 04:21:32;;;;;;;9.20;2.33;;;;;;;;;;5006220;28;20254;-73
2021/01/26 04:24:16;;;;;;;13.00;2.50;;;;;;;;;;4994038;28;20211;-73
2021/01/26 04:27:03;;;;;;;7.90;2.30;;;;;;;;;;4992989;28;20570;-73
2021/01/26 04:29:47;;;;;;;9.77;2.27;;;;;;;;;;4993551;28;20243;-73
2021/01/26 04:32:31;;;;;;;11.97;3.03;;;;;;;;;;4993888;28;20338;-73
2021/01/26 04:35:16;;;;;;;12.77;2.80;;;;;;;;;;4993747;28;20211;-73
2021/01/26 04:38:01;;;;;;;11.67;2.60;;;;;;;;;;4993124;28;20206;-73
2021/01/26 04:40:46;;;;;;;8.60;2.70;;;;;;;;;;4993354;28;20387;-73
2021/01/26 04:43:35;;;;;;;14.97;4.20;;;;;;;;;;4993016;28;20206;-73
2021/01/26 04:46:23;;;;;;;16.20;4.27;;;;;;;;;;4992844;28;20195;-73
2021/01/26 04:49:11;;;;;;;8.40;2.93;;;;;;;;;;4993225;28;20272;-73
2021/01/26 04:52:00;;;;;;;11.33;3.17;;;;;;;;;;4993266;28;20331;-73
2021/01/26 04:54:58;;;;;;;8.70;2.90;;;;;;;;;;4993117;28;20246;-73
2021/01/26 04:58:00;;;;;;;10.97;3.40;;;;;;;;;;4991587;28;20196;-74
2021/01/26 05:00:52;;;;;;;11.30;3.97;;;;;;;;;;4992636;28;20262;-73
2021/01/26 05:03:41;;;;;;;15.37;5.67;;;;;;;;;;4993046;28;20199;-73
2021/01/26 05:06:29;;;;;;;16.83;4.97;;;;;;;;;;4992405;28;20606;-73
2021/01/26 05:09:16;;;;;;;19.40;5.57;;;;;;;;;;4992645;28;20309;-74
2021/01/26 05:12:02;;;;;;;12.60;5.33;;;;;;;;;;4992988;28;20207;-73
2021/01/26 05:14:48;;;;;;;15.53;5.50;;;;;;;;;;4992736;28;20560;-73
2021/01/26 05:17:36;;;;;;;15.93;5.83;;;;;;;;;;4992307;28;20299;-73
2021/01/26 05:20:21;;;;;;;14.07;4.57;;;;;;;;;;4992309;28;20792;-73
2021/01/26 05:23:10;;;;;;;8.07;2.53;;;;;;;;;;4992722;28;20213;-73
2021/01/26 05:25:55;;;;;;;11.13;2.83;;;;;;;;;;4991670;28;20457;-73
2021/01/26 05:28:43;;;;;;;10.63;2.50;;;;;;;;;;4992745;28;20204;-73
2021/01/26 05:31:28;;;;;;;9.67;2.90;;;;;;;;;;4992775;28;20315;-73
2021/01/26 05:34:13;;;;;;;10.17;2.60;;;;;;;;;;4992853;28;20203;-73
2021/01/26 05:36:59;;;;;;;8.77;2.40;;;;;;;;;;4991968;28;20203;-74
2021/01/26 05:39:45;;;;;;;12.07;2.37;;;;;;;;;;4992104;28;20263;-73
2021/01/26 05:42:31;;;;;;;10.53;2.57;;;;;;;;;;4992180;28;20693;-73
2021/01/26 05:45:20;;;;;;;11.47;2.73;;;;;;;;;;4992241;28;20199;-73
2021/01/26 05:48:07;;;;;;;8.07;2.20;;;;;;;;;;4991814;28;20718;-74
2021/01/26 05:50:52;;;;;;;9.10;2.23;;;;;;;;;;4992010;28;20235;-73
2021/01/26 05:53:36;;;;;;;10.53;2.83;;;;;;;;;;4992275;28;20271;-73
2021/01/26 05:56:22;;;;;;;12.47;2.70;;;;;;;;;;4991590;28;20250;-74
2021/01/26 05:59:18;;;;;;;8.93;2.67;;;;;;;;;;4991825;28;20314;-73
2021/01/26 06:02:10;;;;;;;9.53;2.50;;;;;;;;;;4991982;28;20204;-73
2021/01/26 06:05:05;;;;;;;13.43;2.73;;;;;;;;;;4992349;28;20206;-73
2021/01/26 06:08:08;;;;;;;9.27;2.43;;;;;;;;;;4991628;28;20692;-73
2021/01/26 06:10:52;;;;;;;9.70;2.70;;;;;;;;;;4991653;28;20265;-73
2021/01/26 06:13:36;;;;;;;9.20;2.83;;;;;;;;;;4991659;28;20251;-73
2021/01/26 06:16:22;;;;;;;9.03;2.57;;;;;;;;;;4991341;28;20215;-74
2021/01/26 06:19:08;;;;;;;14.20;2.80;;;;;;;;;;4991418;28;20227;-73
2021/01/26 06:21:52;;;;;;;8.57;2.50;;;;;;;;;;4991903;28;20339;-73
2021/01/26 06:24:37;;;;;;;8.10;2.40;;;;;;;;;;4991700;28;20254;-74
2021/01/26 06:27:42;;;;;;;11.87;3.03;;;;;;;;;;4991281;28;20698;-74
2021/01/26 06:30:42;;;;;;;8.97;2.70;;;;;;;;;;4991697;28;20270;-73
2021/01/26 06:33:32;;;;;;;13.73;2.70;;;;;;;;;;4991652;28;20287;-74
2021/01/26 06:36:30;;;;;;;13.30;3.17;;;;;;;;;;4989959;28;20477;-73
2021/01/26 06:39:23;;;;;;;10.83;2.97;;;;;;;;;;4991549;28;20501;-74
2021/01/26 06:42:17;;;;;;;12.90;3.07;;;;;;;;;;4991327;28;20214;-73
2021/01/26 06:45:12;;;;;;;9.27;2.77;;;;;;;;;;4991436;28;20195;-73
2021/01/26 06:48:15;;;;;;;6.63;2.47;;;;;;;;;;4990777;28;20222;-73
2021/01/26 06:51:15;;;;;;;10.93;2.87;;;;;;;;;;5005808;28;20209;-73
2021/01/26 06:54:05;;;;;;;12.97;4.57;;;;;;;;;;4991173;28;20204;-73
2021/01/26 06:57:06;;;;;;;9.87;3.20;;;;;;;;;;5004335;28;20199;-74
2021/01/26 06:59:59;;;;;;;9.67;2.67;;;;;;;;;;5010784;28;20234;-76
2021/01/26 07:03:03;;;;;;;8.87;3.60;;;;;;;;;;4991356;28;20250;-79
2021/01/26 07:05:58;;;;;;;5.77;2.27;;;;;;;;;;4999616;28;20327;-80
2021/01/26 07:08:58;;;;;;;7.17;2.90;;;;;;;;;;5006068;28;20682;-81
2021/01/26 07:11:59;;;;;;;7.87;2.90;;;;;;;;;;5009633;28;20534;-77
2021/01/26 07:15:02;;;;;;;6.27;2.20;;;;;;;;;;5011027;28;20787;-76
2021/01/26 07:18:01;;;;;;;7.77;2.60;;;;;;;;;;5010292;28;20298;-80
2021/01/26 07:20:49;;;;;;;5.90;2.20;;;;;;;;;;5001593;28;20603;-76
2021/01/26 07:23:40;;;;;;;8.33;2.30;;;;;;;;;;4994770;28;20365;-75
2021/01/26 07:26:34;;;;;;;7.77;2.10;;;;;;;;;;4993851;28;20239;-79
2021/01/26 07:29:31;;;;;;;5.00;2.10;;;;;;;;;;4995271;28;20326;-79
2021/01/26 07:32:18;;;;;;;4.90;1.87;;;;;;;;;;5003957;28;20672;-77
2021/01/26 07:35:08;;;;;;;7.40;2.10;;;;;;;;;;5012956;28;20206;-73
2021/01/26 07:37:54;;;;;;;10.50;2.40;;;;;;;;;;5009242;28;20203;-80
2021/01/26 07:40:41;;;;;;;8.60;2.80;;;;;;;;;;5004209;28;20729;-79
2021/01/26 07:43:27;;;;;;;7.53;2.73;;;;;;;;;;5014031;28;20218;-77
2021/01/26 07:46:16;;;;;;;6.93;3.03;;;;;;;;;;5011997;28;20230;-80
2021/01/26 07:49:04;;;;;;;9.53;3.00;;;;;;;;;;5012870;28;20246;-85
2021/01/26 07:51:52;;;;;;;9.73;3.00;;;;;;;;;;5006205;28;20211;-77
2021/01/26 07:54:40;;;;;;;8.43;3.17;;;;;;;;;;5008626;28;20250;-76
2021/01/26 07:57:28;;;;;;;12.00;2.90;;;;;;;;;;5002096;28;20222;-76
2021/01/26 08:00:16;;;;;;;10.87;2.83;;;;;;;;;;4998664;28;20703;-75
2021/01/26 08:03:01;;;;;;;8.57;2.73;;;;;;;;;;4993792;28;20207;-77
2021/01/26 08:05:46;;;;;;;11.30;3.23;;;;;;;;;;4993985;28;20203;-77
2021/01/26 08:08:32;;;;;;;8.27;3.00;;;;;;;;;;4993518;28;20223;-81
2021/01/26 08:11:20;;;;;;;4.27;2.47;;;;;;;;;;5010249;28;20594;-79
2021/01/26 08:14:06;;;;;;;7.23;2.57;;;;;;;;;;5013611;28;20691;-79
2021/01/26 08:16:52;;;;;;;7.80;2.50;;;;;;;;;;5012848;28;20207;-80
2021/01/26 08:19:39;;;;;;;6.20;2.60;;;;;;;;;;5013102;28;20589;-77
2021/01/26 08:22:30;;;;;;;5.90;2.50;;;;;;;;;;5011115;28;20199;-76
2021/01/26 08:25:25;;;;;;;8.13;2.73;;;;;;;;;;5012149;28;20245;-85
2021/01/26 08:28:11;;;;;;;6.60;2.70;;;;;;;;;;5012661;28;20258;-82
2021/01/26 08:30:56;;;;;;;7.07;2.73;;;;;;;;;;4995485;28;20266;-83
2021/01/26 08:33:43;;;;;;;10.33;2.77;;;;;;;;;;4997491;28;20712;-75
2021/01/26 08:36:33;;;;;;;7.47;2.60;;;;;;;;;;4991669;28;20690;-76
2021/01/26 08:39:40;;;;;;;6.87;2.37;;;;;;;;;;4993290;28;20224;-80
2021/01/26 08:42:44;;;;;;;5.90;2.67;;;;;;;;;;4994912;28;20227;-79
2021/01/26 08:45:47;;;;;;;7.60;2.87;;;;;;;;;;4997190;28;20215;-79
2021/01/26 08:48:31;;;;;;;6.77;2.77;;;;;;;;;;5012542;28;20229;-79
2021/01/26 08:51:23;;;;;;;7.30;2.50;;;;;;;;;;5010570;28;20527;-75
2021/01/26 08:54:08;;;;;;;6.90;2.50;;;;;;;;;;5010190;28;20250;-79
2021/01/26 08:56:53;;;;;;;7.27;2.47;;;;;;;;;;5012046;28;20202;-79
2021/01/26 08:59:37;;;;;;;8.23;2.67;;;;;;;;;;5012375;28;20585;-78
2021/01/26 09:02:33;;;;;;;7.73;3.20;;;;;;;;;;5012576;28;20198;-78
2021/01/26 09:05:41;;;;;;;14.33;4.07;;;;;;;;;;5012517;28;20206;-79
2021/01/26 09:11:56;;;;;;;9.77;3.53;;;;;;;;;;5049996;28;20264;-75
2021/01/26 09:14:41;;;;;;;11.30;3.20;;;;;;;;;;5052028;28;20213;-74
2021/01/26 09:17:27;;;;;;;10.97;2.70;;;;;;;;;;5051679;28;20275;-74
2021/01/26 09:20:14;;;;;;;11.10;2.90;;;;;;;;;;5051576;28;20226;-74
2021/01/26 09:22:59;;;;;;;8.93;2.90;;;;;;;;;;5051511;28;20201;-74
2021/01/26 09:25:45;;;;;;;11.07;2.90;;;;;;;;;;5051740;28;20622;-75
2021/01/26 09:28:38;;;;;;;11.43;4.07;;;;;;;;;;5028121;28;20221;-74
2021/01/26 09:31:24;;;;;;;11.83;3.57;;;;;;;;;;5028224;28;20201;-74
2021/01/26 09:34:09;;;;;;;11.97;3.40;;;;;;;;;;5028280;28;20245;-75
2021/01/26 09:37:08;;;;;;;11.83;4.13;;;;;;;;;;5011128;28;20786;-75
2021/01/26 09:40:05;;;;;;;10.37;3.40;;;;;;;;;;5011628;28;20226;-74
2021/01/26 09:42:50;;;;;;;8.73;2.87;;;;;;;;;;5011741;28;20233;-74
2021/01/26 09:45:35;;;;;;;8.60;2.57;;;;;;;;;;5027993;28;20221;-74
2021/01/26 09:48:26;;;;;;;9.73;3.17;;;;;;;;;;5033711;28;20238;-75
2021/01/26 09:51:12;;;;;;;6.33;2.57;;;;;;;;;;5031448;28;20218;-75
2021/01/26 09:54:01;;;;;;;5.73;2.63;;;;;;;;;;5028159;28;20693;-74
2021/01/26 09:56:46;;;;;;;9.33;3.03;;;;;;;;;;5011286;28;20522;-74
2021/01/26 09:59:34;;;;;;;7.73;2.40;;;;;;;;;;5011622;28;20262;-74
2021/01/26 10:02:19;;;;;;;8.33;2.60;;;;;;;;;;5028752;28;20329;-75
2021/01/26 10:05:07;;;;;;;7.50;2.63;;;;;;;;;;5030431;28;20245;-74
2021/01/26 10:08:09;;;;;;;9.03;2.60;;;;;;;;;;5034346;28;20616;-86
2021/01/26 10:10:54;;;;;;;5.87;2.20;;;;;;;;;;5011293;28;20211;-74
2021/01/26 10:13:40;;;;;;;4.80;2.27;;;;;;;;;;5029113;28;20229;-72
2021/01/26 10:16:29;;;;;;;11.20;2.30;;;;;;;;;;5030160;28;20206;-75
2021/01/26 10:19:15;;;;;;;5.93;2.57;;;;;;;;;;5029885;28;20333;-73
2021/01/26 10:22:04;;;;;;;6.00;2.23;;;;;;;;;;5029734;28;20213;-72
2021/01/26 10:24:49;;;;;;;6.53;2.53;;;;;;;;;;5023154;28;20214;-72
2021/01/26 10:27:36;;;;;;;5.27;2.30;;;;;;;;;;5036407;28;20657;-72
2021/01/26 10:30:26;;;;;;;5.47;2.80;;;;;;;;;;5050246;28;20395;-73
2021/01/26 10:33:11;;;;;;;6.47;3.10;;;;;;;;;;5050767;28;20581;-76
2021/01/26 10:36:16;;;;;;;8.47;3.20;;;;;;;;;;5032270;28;20202;-76
2021/01/26 10:39:03;;;;;;;8.30;2.60;;;;;;;;;;5030254;28;20260;-74
2021/01/26 10:41:48;;;;;;;8.20;3.03;;;;;;;;;;5030807;28;20233;-73
2021/01/26 10:44:32;;;;;;;5.50;2.33;;;;;;;;;;5030799;28;20634;-73
2021/01/26 10:47:18;;;;;;;4.70;2.37;;;;;;;;;;5010576;28;20306;-72
2021/01/26 10:50:04;;;;;;;5.03;2.30;;;;;;;;;;5011162;28;20289;-72
2021/01/26 10:52:51;;;;;;;5.47;2.30;;;;;;;;;;5025530;28;20688;-74
2021/01/26 10:55:36;;;;;;;7.67;2.63;;;;;;;;;;5033596;28;20656;-75
2021/01/26 10:58:20;;;;;;;6.40;2.27;;;;;;;;;;5036205;28;20307;-73
2021/01/26 11:01:05;;;;;;;7.93;2.83;;;;;;;;;;5033117;28;20639;-73
2021/01/26 11:03:50;;;;;;;7.00;3.23;;;;;;;;;;5032971;28;20249;-76
2021/01/26 11:06:35;;;;;;;8.30;3.30;;;;;;;;;;5014217;28;20210;-73
2021/01/26 11:09:20;;;;;;;6.93;3.70;;;;;;;;;;5025183;28;20253;-74
2021/01/26 11:12:05;;;;;;;10.70;5.67;;;;;;;;;;5050289;28;20213;-74
2021/01/26 11:14:49;;;;;;;10.27;3.30;;;;;;;;;;5054151;28;20201;-74
2021/01/26 11:17:34;;;;;;;8.83;3.93;;;;;;;;;;5053644;28;20230;-71
2021/01/26 11:20:19;;;;;;;10.33;4.77;;;;;;;;;;5054015;28;20334;-72
2021/01/26 11:23:03;;;;;;;10.03;4.73;;;;;;;;;;5054013;28;20206;-74
2021/01/26 11:25:48;;;;;;;10.10;5.27;;;;;;;;;;5031207;28;20225;-80
2021/01/26 11:28:33;;;;;;;11.37;5.30;;;;;;;;;;5022193;28;20706;-76
2021/01/26 11:31:18;;;;;;;13.43;5.90;;;;;;;;;;5032856;28;20577;-74
2021/01/26 11:34:02;;;;;;;7.93;4.03;;;;;;;;;;5037045;28;20225;-76
2021/01/26 11:36:47;;;;;;;8.68;3.42;;;;;;;;;;5035649;28;20481;-80
2021/01/26 11:39:31;;;;;;;5.17;2.73;;;;;;;;;;5032908;28;20243;-81
2021/01/26 11:42:16;;;;;;;7.00;2.73;;;;;;;;;;5029207;28;20216;-86
2021/01/26 11:45:01;;;;;;;6.57;3.57;;;;;;;;;;5028012;28;20335;-83
2021/01/26 11:47:45;;;;;;;7.90;3.10;;;;;;;;;;5053193;28;20799;-78
2021/01/26 11:50:30;;;;;;;6.53;2.60;;;;;;;;;;5037270;28;20217;-77
2021/01/26 11:53:15;;;;;;;5.87;2.93;;;;;;;;;;5033738;28;20714;-89
2021/01/26 11:56:00;;;;;;;7.13;2.63;;;;;;;;;;5033319;28;20682;-80
2021/01/26 11:58:46;;;;;;;8.10;3.70;;;;;;;;;;5033443;28;20226;-81
2021/01/26 12:01:30;;;;;;;7.37;3.30;;;;;;;;;;5033392;28;20532;-86
2021/01/26 12:04:15;;;;;;;9.00;3.13;;;;;;;;;;5033408;28;20207;-89
2021/01/26 12:06:59;;;;;;;7.50;2.47;;;;;;;;;;5032173;28;20199;-79
2021/01/26 12:09:44;;;;;;;8.25;3.03;;;;;;;;;;5032717;28;20477;-77
2021/01/26 12:12:28;;;;;;;8.40;3.80;;;;;;;;;;5031692;28;20222;-78
2021/01/26 12:15:15;;;;;;;8.47;3.70;;;;;;;;;;5033144;28;20623;-77
2021/01/26 12:17:59;;;;;;;9.93;3.10;;;;;;;;;;5032052;28;20313;-79
2021/01/26 12:20:44;;;;;;;7.40;3.20;;;;;;;;;;5032974;28;20230;-78
2021/01/26 12:23:28;;;;;;;11.93;3.53;;;;;;;;;;5032719;28;20216;-77
2021/01/26 12:26:13;;;;;;;8.50;3.10;;;;;;;;;;5032577;28;20207;-78
2021/01/26 12:28:57;;;;;;;6.77;3.30;;;;;;;;;;5032928;28;20312;-77
2021/01/26 12:31:43;;;;;;;7.67;2.43;;;;;;;;;;5032986;28;20608;-77
2021/01/26 12:34:28;;;;;;;6.97;2.20;;;;;;;;;;5033035;28;20212;-78
2021/01/26 12:37:12;;;;;;;6.93;2.07;;;;;;;;;;5032494;28;20205;-75
2021/01/26 12:39:57;;;;;;;7.10;2.43;;;;;;;;;;5032475;28;20600;-77
2021/01/26 12:42:41;;;;;;;6.07;2.77;;;;;;;;;;5032870;28;20200;-75
2021/01/26 12:45:27;;;;;;;8.23;2.90;;;;;;;;;;5032517;28;20284;-76
2021/01/26 12:48:12;;;;;;;5.03;2.30;;;;;;;;;;5012212;28;20291;-76
2021/01/26 12:50:57;;;;;;;6.40;2.00;;;;;;;;;;5013410;28;20653;-78
2021/01/26 12:53:41;;;;;;;4.90;1.87;;;;;;;;;;5012628;28;20275;-76
2021/01/26 12:56:26;;;;;;;3.53;1.70;;;;;;;;;;5012259;28;20208;-75
2021/01/26 12:59:10;;;;;;;5.20;1.60;;;;;;;;;;5012477;28;20232;-75
2021/01/26 13:01:55;;;;;;;3.63;1.77;;;;;;;;;;5012616;28;20213;-74
2021/01/26 13:04:40;;;;;;;6.20;2.60;;;;;;;;;;5012495;28;20222;-75
2021/01/26 13:07:25;;;;;;;4.80;2.30;;;;;;;;;;5024795;28;20233;-75
2021/01/26 13:10:11;;;;;;;6.80;2.93;;;;;;;;;;5031685;28;20308;-75
2021/01/26 13:12:55;;;;;;;5.57;2.70;;;;;;;;;;5032249;28;20592;-75
2021/01/26 13:15:40;;;;;;;4.60;2.38;;;;;;;;;;5031751;28;20406;-74
2021/01/26 13:18:24;;;;;;;6.40;2.40;;;;;;;;;;5031131;28;20229;-76
2021/01/26 13:21:09;;;;;;;5.77;1.93;;;;;;;;;;5031777;28;20293;-74
2021/01/26 13:23:54;;;;;;;3.57;2.23;;;;;;;;;;5032138;28;20204;-74
2021/01/26 13:26:38;;;;;;;5.30;1.80;;;;;;;;;;5031524;28;20734;-76
2021/01/26 13:29:23;;;;;;;5.30;2.40;;;;;;;;;;5032000;28;20227;-75
2021/01/26 13:32:08;;;;;;;5.20;2.50;;;;;;;;;;5031427;28;20737;-75
2021/01/26 13:34:52;;;;;;;6.07;2.20;;;;;;;;;;5031430;28;20203;-76
2021/01/26 13:37:37;;;;;;;5.83;2.20;;;;;;;;;;5030008;28;20266;-76
2021/01/26 13:40:22;;;;;;;5.43;2.60;;;;;;;;;;5031444;28;20710;-74
2021/01/26 13:43:06;;;;;;;6.63;2.13;;;;;;;;;;5031725;28;20824;-75
2021/01/26 13:45:51;;;;;;;5.20;2.10;;;;;;;;;;5031096;28;20204;-74
2021/01/26 13:48:35;;;;;;;3.47;2.40;;;;;;;;;;5031482;28;20228;-75
2021/01/26 13:51:20;;;;;;;6.55;2.40;;;;;;;;;;5031348;28;20437;-76
2021/01/26 13:54:05;;;;;;;4.97;2.50;;;;;;;;;;5031431;28;20581;-74
2021/01/26 13:56:50;;;;;;;8.07;2.97;;;;;;;;;;5030142;28;20211;-75
2021/01/26 13:59:35;;;;;;;5.57;2.70;;;;;;;;;;5031777;28;20641;-75
2021/01/26 14:02:20;;;;;;;7.63;3.27;;;;;;;;;;5028275;28;20211;-78
2021/01/26 14:05:05;;;;;;;6.37;2.50;;;;;;;;;;5031650;28;20223;-78
2021/01/26 14:07:49;;;;;;;6.10;2.67;;;;;;;;;;5031642;28;20236;-78
2021/01/26 14:10:35;;;;;;;8.47;3.10;;;;;;;;;;5011379;28;20595;-77
2021/01/26 14:13:20;;;;;;;9.17;3.50;;;;;;;;;;5029159;28;20208;-78
2021/01/26 14:16:05;;;;;;;6.50;3.40;;;;;;;;;;5030469;28;20244;-78
2021/01/26 14:18:49;;;;;;;8.40;3.10;;;;;;;;;;5031257;28;20229;-78
2021/01/26 14:21:34;;;;;;;8.47;3.70;;;;;;;;;;5031134;28;20592;-78
2021/01/26 14:24:18;;;;;;;8.10;4.00;;;;;;;;;;5030998;28;20208;-78
2021/01/26 14:27:04;;;;;;;8.73;3.93;;;;;;;;;;5030444;28;20223;-78
2021/01/26 14:29:49;;;;;;;8.20;3.57;;;;;;;;;;5030750;28;20212;-78
2021/01/26 14:32:33;;;;;;;8.87;3.90;;;;;;;;;;5030301;28;20260;-77
2021/01/26 14:35:18;;;;;;;8.50;3.80;;;;;;;;;;5030325;28;20285;-77
2021/01/26 14:38:03;;;;;;;9.60;3.60;;;;;;;;;;5037867;28;20231;-78
2021/01/26 14:40:47;;;;;;;10.93;4.27;;;;;;;;;;5020904;28;20711;-78
2021/01/26 14:43:33;;;;;;;8.77;4.00;;;;;;;;;;5030350;28;20203;-78
2021/01/26 14:46:17;;;;;;;11.40;4.00;;;;;;;;;;5014955;28;20596;-78
2021/01/26 14:49:02;;;;;;;8.43;3.97;;;;;;;;;;5012953;28;20250;-78
2021/01/26 14:51:46;;;;;;;6.50;3.93;;;;;;;;;;5030638;28;20211;-78
2021/01/26 14:54:31;;;;;;;7.38;3.83;;;;;;;;;;5030542;28;20450;-78
2021/01/26 14:57:15;;;;;;;7.33;3.73;;;;;;;;;;5030195;28;20274;-78
2021/01/26 15:00:00;;;;;;;8.83;4.10;;;;;;;;;;5030669;28;20236;-78
2021/01/26 15:02:46;;;;;;;9.37;4.23;;;;;;;;;;5030685;28;20249;-78
2021/01/26 15:05:31;;;;;;;8.73;4.20;;;;;;;;;;5030770;28;20639;-78
2021/01/26 15:08:15;;;;;;;7.93;5.27;;;;;;;;;;5030288;28;20223;-78
2021/01/26 15:11:00;;;;;;;11.87;4.53;;;;;;;;;;5026136;28;20219;-78
2021/01/26 15:13:44;;;;;;;9.47;4.37;;;;;;;;;;5011171;28;20209;-78
2021/01/26 15:16:31;;;;;;;12.17;3.90;;;;;;;;;;5021522;28;20229;-78
2021/01/26 15:19:15;;;;;;;8.20;3.40;;;;;;;;;;5030644;28;20220;-78
2021/01/26 15:22:00;;;;;;;9.17;3.93;;;;;;;;;;5030303;28;20732;-78
2021/01/26 15:24:44;;;;;;;10.97;4.17;;;;;;;;;;5030426;28;20206;-78
2021/01/26 15:27:28;;;;;;;11.40;3.83;;;;;;;;;;5029779;28;20258;-77
2021/01/26 15:30:14;;;;;;;8.90;3.70;;;;;;;;;;5029426;28;20418;-78
2021/01/26 15:33:00;;;;;;;9.70;3.00;;;;;;;;;;5030261;28;20217;-78
2021/01/26 15:35:44;;;;;;;8.57;3.30;;;;;;;;;;5030308;28;20210;-78
2021/01/26 15:38:29;;;;;;;8.77;3.10;;;;;;;;;;5030308;28;20221;-78
2021/01/26 15:41:13;;;;;;;7.13;3.20;;;;;;;;;;5030030;28;20361;-78
2021/01/26 15:43:58;;;;;;;9.70;3.20;;;;;;;;;;5033743;28;20269;-78
2021/01/26 15:46:43;;;;;;;8.17;3.20;;;;;;;;;;5033362;28;20252;-78
2021/01/26 15:49:33;;;;;;;10.03;3.50;;;;;;;;;;5033629;28;20217;-78
2021/01/26 15:52:17;;;;;;;10.57;3.00;;;;;;;;;;5033404;28;20221;-78
2021/01/26 15:55:03;;;;;;;7.73;4.17;;;;;;;;;;5032850;28;20249;-78
2021/01/26 15:57:47;;;;;;;10.13;3.97;;;;;;;;;;5033186;28;20250;-78
2021/01/26 16:00:32;;;;;;;9.37;3.83;;;;;;;;;;5033596;28;20234;-78
2021/01/26 16:03:16;;;;;;;7.73;3.27;;;;;;;;;;5033683;28;20265;-78
2021/01/26 16:06:02;;;;;;;7.73;3.87;;;;;;;;;;5033030;28;20257;-78
2021/01/26 16:08:46;;;;;;;10.23;3.70;;;;;;;;;;5033293;28;20297;-78
2021/01/26 16:11:31;;;;;;;7.83;3.70;;;;;;;;;;5032992;28;20295;-78
2021/01/26 16:14:15;;;;;;;11.87;4.47;;;;;;;;;;5034063;28;20286;-78
2021/01/26 16:17:00;;;;;;;10.37;4.60;;;;;;;;;;5031827;28;20274;-78
2021/01/26 16:19:44;;;;;;;11.60;5.57;;;;;;;;;;5018088;28;20762;-78
2021/01/26 16:22:30;;;;;;;9.97;5.13;;;;;;;;;;5032838;28;20245;-78
2021/01/26 16:25:15;;;;;;;9.83;4.73;;;;;;;;;;5034898;28;20205;-77
2021/01/26 16:27:59;;;;;;;6.47;3.90;;;;;;;;;;5037017;28;20713;-79
2021/01/26 16:30:44;;;;;;;6.87;3.97;;;;;;;;;;5032220;28;20197;-78
2021/01/26 16:33:28;;;;;;;10.80;4.47;;;;;;;;;;5012610;28;20412;-77
2021/01/26 16:36:13;;;;;;;14.87;6.20;;;;;;;;;;5023603;28;20695;-77
2021/01/26 16:38:58;;;;;;;13.93;7.30;;;;;;;;;;5034705;28;20209;-74
2021/01/26 16:41:43;;;;;;;8.80;4.37;;;;;;;;;;5032617;28;20724;-74